createdAt,value
2022-09-06T00:00:43.497Z,20.10
2022-09-06T00:03:10.455Z,20.00
2022-09-06T00:05:37.286Z,20.00
2022-09-06T00:08:05.474Z,20.10
2022-09-06T00:10:33.618Z,20.00
2022-09-06T00:13:02.271Z,20.00
2022-09-06T00:15:29.341Z,20.00
2022-09-06T00:17:59.461Z,20.00
2022-09-06T00:20:27.342Z,19.90
2022-09-06T00:23:02.029Z,19.90
2022-09-06T00:25:29.785Z,19.90
2022-09-06T00:27:57.710Z,19.90
2022-09-06T00:30:25.413Z,19.90
2022-09-06T00:32:52.918Z,19.80
2022-09-06T00:35:20.729Z,19.80
2022-09-06T00:37:47.606Z,19.80
2022-09-06T00:40:14.617Z,19.80
2022-09-06T00:42:41.300Z,19.80
2022-09-06T00:45:10.317Z,19.80
2022-09-06T00:47:40.218Z,19.70
2022-09-06T00:50:08.537Z,19.80
2022-09-06T00:52:36.847Z,19.70
2022-09-06T00:55:04.171Z,19.70
2022-09-06T00:57:32.119Z,19.80
2022-09-06T01:00:00.346Z,19.70
2022-09-06T01:02:27.064Z,19.70
2022-09-06T01:04:54.634Z,19.70
2022-09-06T01:07:21.227Z,19.70
2022-09-06T01:10:08.034Z,19.70
2022-09-06T01:12:53.998Z,19.60
2022-09-06T01:15:32.768Z,19.60
2022-09-06T01:18:13.780Z,19.50
2022-09-06T01:20:41.763Z,19.50
2022-09-06T01:23:23.115Z,19.50
2022-09-06T01:26:11.520Z,19.50
2022-09-06T01:28:46.142Z,19.50
2022-09-06T01:31:31.568Z,19.40
2022-09-06T01:34:11.716Z,19.30
2022-09-06T01:37:06.597Z,19.20
2022-09-06T01:39:35.764Z,19.10
2022-09-06T01:42:12.095Z,19.00
2022-09-06T01:45:01.091Z,18.90
2022-09-06T01:47:46.593Z,18.90
2022-09-06T01:50:31.201Z,18.80
2022-09-06T01:53:18.990Z,18.90
2022-09-06T01:56:00.265Z,18.70
2022-09-06T01:58:55.857Z,18.80
2022-09-06T02:01:33.850Z,18.80
2022-09-06T02:04:11.109Z,18.80
2022-09-06T02:06:43.677Z,18.80
2022-09-06T02:09:15.194Z,18.80
2022-09-06T02:12:02.536Z,18.80
2022-09-06T02:14:37.370Z,18.80
2022-09-06T02:17:05.750Z,18.80
2022-09-06T02:20:11.021Z,18.80
2022-09-06T02:22:41.535Z,18.80
2022-09-06T02:25:12.375Z,18.80
2022-09-06T02:27:39.530Z,18.80
2022-09-06T02:30:06.757Z,18.80
2022-09-06T02:32:39.194Z,18.70
2022-09-06T02:35:13.883Z,18.70
2022-09-06T02:37:42.311Z,18.80
2022-09-06T02:40:10.297Z,18.80
2022-09-06T02:42:36.986Z,18.70
2022-09-06T02:45:05.195Z,18.80
2022-09-06T02:47:31.870Z,18.70
2022-09-06T02:49:58.483Z,18.70
2022-09-06T02:52:25.179Z,18.70
2022-09-06T02:54:52.226Z,18.70
2022-09-06T02:57:18.915Z,18.70
2022-09-06T02:59:46.225Z,18.60
2022-09-06T03:02:12.949Z,18.60
2022-09-06T03:04:39.635Z,18.60
2022-09-06T03:07:06.250Z,18.60
2022-09-06T03:09:32.882Z,18.60
2022-09-06T03:11:59.506Z,18.60
2022-09-06T03:14:26.159Z,18.60
2022-09-06T03:16:52.963Z,18.60
2022-09-06T03:19:20.062Z,18.60
2022-09-06T03:21:46.690Z,18.60
2022-09-06T03:24:13.308Z,18.60
2022-09-06T03:26:39.913Z,18.60
2022-09-06T03:29:06.533Z,18.50
2022-09-06T03:31:33.182Z,18.60
2022-09-06T03:34:01.202Z,18.50
2022-09-06T03:36:27.850Z,18.50
2022-09-06T03:38:54.453Z,18.40
2022-09-06T03:41:21.104Z,18.40
2022-09-06T03:43:47.855Z,18.30
2022-09-06T03:46:14.641Z,18.30
2022-09-06T03:48:41.849Z,18.40
2022-09-06T03:51:08.445Z,18.40
2022-09-06T03:53:35.117Z,18.30
2022-09-06T03:56:01.893Z,18.30
2022-09-06T03:58:32.648Z,18.20
2022-09-06T04:01:08.363Z,18.10
2022-09-06T04:03:36.706Z,18.10
2022-09-06T04:06:04.446Z,18.10
2022-09-06T04:08:32.217Z,18.10
2022-09-06T04:10:59.787Z,18.10
2022-09-06T04:13:27.920Z,18.10
2022-09-06T04:15:54.745Z,18.00
2022-09-06T04:18:22.231Z,18.00
2022-09-06T04:20:50.594Z,18.00
2022-09-06T04:23:18.186Z,18.00
2022-09-06T04:25:52.973Z,17.90
2022-09-06T04:28:20.135Z,17.90
2022-09-06T04:30:53.943Z,17.80
2022-09-06T04:33:21.937Z,17.80
2022-09-06T04:35:50.111Z,17.80
2022-09-06T04:38:16.954Z,17.80
2022-09-06T04:40:43.659Z,17.80
2022-09-06T04:43:10.333Z,17.80
2022-09-06T04:45:37.176Z,17.80
2022-09-06T04:48:04.130Z,17.80
2022-09-06T04:50:30.905Z,17.90
2022-09-06T04:52:57.613Z,17.90
2022-09-06T04:55:26.348Z,17.90
2022-09-06T04:57:53.002Z,17.90
2022-09-06T05:00:19.732Z,17.80
2022-09-06T05:02:46.619Z,17.90
2022-09-06T05:05:13.297Z,17.90
2022-09-06T05:07:39.938Z,17.90
2022-09-06T05:10:06.833Z,17.90
2022-09-06T05:12:33.462Z,17.90
2022-09-06T05:15:00.070Z,17.90
2022-09-06T05:17:26.739Z,17.90
2022-09-06T05:19:53.379Z,18.00
2022-09-06T05:22:19.981Z,17.90
2022-09-06T05:24:46.607Z,17.90
2022-09-06T05:27:14.171Z,17.90
2022-09-06T05:29:40.975Z,17.90
2022-09-06T05:32:07.774Z,17.90
2022-09-06T05:34:34.471Z,17.90
2022-09-06T05:37:01.110Z,18.00
2022-09-06T05:39:27.736Z,18.00
2022-09-06T05:41:54.434Z,18.00
2022-09-06T05:44:21.045Z,18.00
2022-09-06T05:46:47.690Z,18.00
2022-09-06T05:49:14.326Z,17.90
2022-09-06T05:51:41.516Z,17.90
2022-09-06T05:54:10.557Z,17.90
2022-09-06T05:56:37.157Z,17.90
2022-09-06T05:59:04.413Z,17.80
2022-09-06T06:01:31.390Z,17.60
2022-09-06T06:04:03.364Z,17.50
2022-09-06T06:06:32.397Z,17.40
2022-09-06T06:08:59.549Z,17.20
2022-09-06T06:11:27.920Z,17.10
2022-09-06T06:13:54.627Z,17.10
2022-09-06T06:16:22.659Z,17.10
2022-09-06T06:18:52.189Z,17.10
2022-09-06T06:21:22.062Z,17.00
2022-09-06T06:23:55.370Z,16.90
2022-09-06T06:26:23.014Z,16.90
2022-09-06T06:28:49.841Z,16.90
2022-09-06T06:31:16.701Z,16.80
2022-09-06T06:33:44.241Z,16.90
2022-09-06T06:36:13.834Z,16.80
2022-09-06T06:38:42.541Z,16.80
2022-09-06T06:41:11.263Z,16.80
2022-09-06T06:43:38.163Z,16.80
2022-09-06T06:46:17.054Z,16.80
2022-09-06T06:48:45.041Z,16.80
2022-09-06T06:51:14.736Z,16.80
2022-09-06T06:53:41.543Z,16.90
2022-09-06T06:56:21.940Z,16.90
2022-09-06T06:58:50.810Z,16.90
2022-09-06T07:01:20.111Z,16.90
2022-09-06T07:03:47.465Z,17.00
2022-09-06T07:06:15.193Z,17.10
2022-09-06T07:08:42.783Z,17.10
2022-09-06T07:11:14.580Z,17.20
2022-09-06T07:13:41.441Z,17.30
2022-09-06T07:16:13.325Z,17.20
2022-09-06T07:18:43.302Z,17.20
2022-09-06T07:24:08.429Z,17.40
2022-09-06T07:26:37.543Z,17.40
2022-09-06T07:29:05.229Z,17.40
2022-09-06T07:34:20.357Z,17.40
2022-09-06T07:36:47.054Z,17.40
2022-09-06T07:39:14.067Z,17.50
2022-09-06T07:41:40.701Z,17.70
2022-09-06T07:44:07.317Z,17.70
2022-09-06T07:46:34.314Z,17.70
2022-09-06T07:49:03.422Z,17.60
2022-09-06T07:51:30.102Z,17.50
2022-09-06T07:56:43.351Z,17.50
2022-09-06T07:59:09.996Z,17.50
2022-09-06T08:01:40.092Z,17.40
2022-09-06T08:04:12.747Z,17.50
2022-09-06T08:09:28.836Z,17.50
2022-09-06T08:11:55.482Z,17.50
2022-09-06T08:14:22.109Z,17.40
2022-09-06T08:16:48.738Z,17.40
2022-09-06T08:19:15.509Z,17.40
2022-09-06T08:21:42.130Z,17.40
2022-09-06T08:24:12.049Z,17.30
2022-09-06T08:26:40.534Z,17.30
2022-09-06T08:29:08.943Z,17.10
2022-09-06T08:31:38.335Z,17.10
2022-09-06T08:34:05.268Z,17.00
2022-09-06T08:36:33.351Z,17.00
2022-09-06T08:39:02.263Z,16.90
2022-09-06T08:41:37.936Z,16.90
2022-09-06T08:47:04.232Z,17.00
2022-09-06T08:49:35.466Z,17.20
2022-09-06T08:52:41.831Z,17.40
2022-09-06T08:55:34.437Z,17.60
2022-09-06T08:58:29.038Z,17.70
2022-09-06T09:01:01.965Z,17.80
2022-09-06T09:03:36.504Z,17.80
2022-09-06T09:06:05.512Z,17.80
2022-09-06T09:09:01.838Z,17.80
2022-09-06T09:11:29.977Z,17.70
2022-09-06T09:14:05.705Z,17.80
2022-09-06T09:16:33.178Z,17.90
2022-09-06T09:19:02.962Z,17.90
2022-09-06T09:21:33.973Z,18.20
2022-09-06T09:24:06.698Z,18.30
2022-09-06T09:26:42.197Z,18.50
2022-09-06T09:29:12.361Z,18.90
2022-09-06T09:31:53.474Z,19.00
2022-09-06T09:34:34.497Z,19.20
2022-09-06T09:37:46.107Z,19.10
2022-09-06T09:40:15.914Z,18.90
2022-09-06T09:42:43.940Z,18.80
2022-09-06T09:45:26.937Z,18.70
2022-09-06T09:47:53.863Z,18.60
2022-09-06T09:50:28.823Z,18.50
2022-09-06T09:52:55.850Z,18.60
2022-09-06T09:55:24.918Z,18.60
2022-09-06T09:57:54.176Z,18.70
2022-09-06T10:00:36.325Z,18.70
2022-09-06T10:03:16.090Z,18.70
2022-09-06T10:05:56.375Z,18.70
2022-09-06T10:08:30.596Z,18.70
2022-09-06T10:10:58.023Z,18.80
2022-09-06T10:13:30.074Z,18.80
2022-09-06T10:15:58.854Z,18.80
2022-09-06T10:18:36.562Z,19.10
2022-09-06T10:21:07.455Z,19.40
2022-09-06T10:26:53.778Z,19.50
2022-09-06T10:29:34.275Z,19.50
2022-09-06T10:32:10.752Z,19.70
2022-09-06T10:34:46.236Z,19.80
2022-09-06T10:37:25.090Z,19.90
2022-09-06T10:40:12.593Z,19.90
2022-09-06T10:42:42.837Z,20.20
2022-09-06T10:45:32.890Z,20.50
2022-09-06T10:48:15.108Z,20.80
2022-09-06T10:50:53.383Z,21.10
2022-09-06T10:53:48.348Z,21.30
2022-09-06T10:56:24.436Z,21.00
2022-09-06T11:02:19.853Z,21.50
2022-09-06T11:10:45.246Z,22.20
2022-09-06T11:13:18.909Z,22.10
2022-09-06T11:16:00.619Z,22.30
2022-09-06T11:18:48.484Z,22.60
2022-09-06T11:21:40.120Z,22.70
2022-09-06T11:24:29.118Z,22.40
2022-09-06T11:27:05.452Z,22.60
2022-09-06T11:29:34.322Z,23.10
2022-09-06T11:32:20.313Z,23.30
2022-09-06T11:34:58.022Z,23.60
2022-09-06T11:37:32.736Z,24.00
2022-09-06T11:40:30.621Z,24.20
2022-09-06T11:42:59.248Z,24.10
2022-09-06T11:45:44.466Z,23.90
2022-09-06T11:48:34.479Z,24.40
2022-09-06T11:51:10.629Z,24.60
2022-09-06T11:53:49.566Z,24.80
2022-09-06T11:56:29.078Z,25.00
2022-09-06T11:59:29.221Z,25.20
2022-09-06T12:01:55.799Z,25.30
2022-09-06T12:04:23.932Z,25.40
2022-09-06T12:07:11.005Z,25.60
2022-09-06T12:09:38.854Z,25.60
2022-09-06T12:12:06.172Z,25.70
2022-09-06T12:14:35.917Z,25.90
2022-09-06T12:17:04.755Z,25.90
2022-09-06T12:19:44.102Z,25.70
2022-09-06T12:22:29.393Z,25.80
2022-09-06T12:25:40.951Z,25.90
2022-09-06T12:28:19.949Z,26.30
2022-09-06T12:30:48.724Z,26.50
2022-09-06T12:33:38.852Z,26.30
2022-09-06T12:36:17.290Z,26.30
2022-09-06T12:39:02.066Z,26.40
2022-09-06T12:41:31.816Z,26.50
2022-09-06T12:44:00.487Z,26.90
2022-09-06T12:46:30.013Z,27.20
2022-09-06T12:49:05.785Z,27.00
2022-09-06T12:51:33.482Z,27.40
2022-09-06T12:54:04.090Z,27.70
2022-09-06T12:56:35.626Z,27.80
2022-09-06T12:59:20.372Z,27.60
2022-09-06T13:02:20.978Z,28.20
2022-09-06T13:04:52.016Z,28.10
2022-09-06T13:07:21.180Z,28.10
2022-09-06T13:09:51.908Z,28.30
2022-09-06T13:12:37.634Z,28.70
2022-09-06T13:15:11.720Z,28.90
2022-09-06T13:17:38.710Z,28.80
2022-09-06T13:20:31.892Z,28.90
2022-09-06T13:23:11.021Z,28.70
2022-09-06T13:25:49.297Z,28.90
2022-09-06T13:28:26.191Z,29.00
2022-09-06T13:31:12.918Z,29.30
2022-09-06T13:33:40.730Z,29.00
2022-09-06T13:36:13.115Z,29.10
2022-09-06T13:38:40.211Z,29.40
2022-09-06T13:41:27.768Z,28.90
2022-09-06T13:44:07.730Z,29.20
2022-09-06T13:46:36.337Z,29.00
2022-09-06T13:49:03.483Z,29.50
2022-09-06T13:51:30.195Z,29.20
2022-09-06T13:54:23.310Z,29.10
2022-09-06T13:56:50.620Z,29.40
2022-09-06T13:59:18.682Z,29.90
2022-09-06T14:01:47.856Z,29.90
2022-09-06T14:04:19.612Z,29.70
2022-09-06T14:06:46.856Z,29.60
2022-09-06T14:09:13.691Z,30.10
2022-09-06T14:11:42.077Z,30.10
2022-09-06T14:14:12.233Z,30.30
2022-09-06T14:16:39.021Z,30.10
2022-09-06T14:19:05.861Z,30.00
2022-09-06T14:21:32.889Z,29.60
2022-09-06T14:24:03.877Z,29.70
2022-09-06T14:26:31.310Z,29.60
2022-09-06T14:28:57.970Z,29.50
2022-09-06T14:31:26.962Z,29.60
2022-09-06T14:33:54.878Z,29.70
2022-09-06T14:36:23.674Z,29.30
2022-09-06T14:38:50.806Z,29.00
2022-09-06T14:41:19.059Z,28.80
2022-09-06T14:43:52.961Z,28.90
2022-09-06T14:46:21.952Z,29.00
2022-09-06T14:48:49.361Z,28.30
2022-09-06T14:51:24.037Z,28.00
2022-09-06T14:53:54.309Z,28.00
2022-09-06T14:56:21.605Z,27.60
2022-09-06T14:58:48.626Z,27.00
2022-09-06T15:01:24.299Z,26.80
2022-09-06T15:03:58.979Z,26.70
2022-09-06T15:06:27.223Z,26.80
2022-09-06T15:08:59.167Z,26.80
2022-09-06T15:11:39.270Z,26.70
2022-09-06T15:14:08.666Z,26.60
2022-09-06T15:16:36.184Z,26.40
2022-09-06T15:19:02.973Z,26.30
2022-09-06T15:21:30.341Z,26.20
2022-09-06T15:23:57.183Z,26.20
2022-09-06T15:26:24.037Z,26.20
2022-09-06T15:28:50.722Z,26.10
2022-09-06T15:31:17.561Z,25.90
2022-09-06T15:33:44.391Z,25.90
2022-09-06T15:36:11.987Z,26.00
2022-09-06T15:38:43.168Z,25.90
2022-09-06T15:41:18.638Z,25.70
2022-09-06T15:43:47.689Z,25.80
2022-09-06T15:46:16.817Z,25.70
2022-09-06T15:48:48.962Z,25.60
2022-09-06T15:51:16.732Z,25.50
2022-09-06T15:53:44.163Z,25.60
2022-09-06T15:56:14.968Z,25.50
2022-09-06T15:58:41.835Z,25.60
2022-09-06T16:01:17.549Z,25.60
2022-09-06T16:03:48.971Z,25.50
2022-09-06T16:09:00.888Z,25.70
2022-09-06T16:11:28.248Z,25.70
2022-09-06T16:13:55.070Z,25.90
2022-09-06T16:16:22.719Z,25.90
2022-09-06T16:18:49.693Z,25.90
2022-09-06T16:21:21.479Z,25.80
2022-09-06T16:23:50.201Z,26.00
2022-09-06T16:26:21.345Z,26.00
2022-09-06T16:28:50.572Z,25.90
2022-09-06T16:31:18.366Z,25.90
2022-09-06T16:33:45.684Z,26.10
2022-09-06T16:36:13.866Z,26.40
2022-09-06T16:38:41.317Z,26.30
2022-09-06T16:41:21.845Z,26.40
2022-09-06T16:43:55.125Z,26.40
2022-09-06T16:46:24.193Z,27.60
2022-09-06T16:48:53.178Z,31.50
2022-09-06T16:51:22.026Z,33.70
2022-09-06T16:53:49.615Z,34.40
2022-09-06T16:56:18.557Z,35.20
2022-09-06T16:58:53.015Z,35.00
2022-09-06T17:01:20.830Z,34.00
2022-09-06T17:03:48.612Z,31.00
2022-09-06T17:06:15.760Z,27.90
2022-09-06T17:08:42.723Z,26.40
2022-09-06T17:11:15.431Z,25.30
2022-09-06T17:13:43.309Z,24.60
2022-09-06T17:16:28.799Z,24.40
2022-09-06T17:18:55.714Z,24.00
2022-09-06T17:21:24.203Z,23.60
2022-09-06T17:23:52.084Z,23.30
2022-09-06T17:26:21.081Z,23.20
2022-09-06T17:28:49.008Z,23.00
2022-09-06T17:31:16.603Z,22.90
2022-09-06T17:33:45.610Z,22.80
2022-09-06T17:36:15.115Z,22.70
2022-09-06T17:38:42.869Z,22.50
2022-09-06T17:41:19.934Z,22.30
2022-09-06T17:43:47.370Z,22.20
2022-09-06T17:46:14.347Z,22.00
2022-09-06T17:48:41.153Z,21.90
2022-09-06T17:51:08.620Z,21.80
2022-09-06T17:53:36.067Z,21.60
2022-09-06T17:56:05.135Z,21.50
2022-09-06T17:58:32.458Z,21.40
2022-09-06T18:01:07.196Z,21.20
2022-09-06T18:03:34.917Z,21.10
2022-09-06T18:06:22.685Z,21.00
2022-09-06T18:08:51.554Z,20.90
2022-09-06T18:11:25.628Z,20.80
2022-09-06T18:13:58.323Z,20.70
2022-09-06T18:16:26.391Z,20.60
2022-09-06T18:18:58.713Z,20.50
2022-09-06T18:21:26.201Z,20.40
2022-09-06T18:23:56.869Z,20.30
2022-09-06T18:26:24.332Z,20.20
2022-09-06T18:28:52.837Z,20.10
2022-09-06T18:31:21.889Z,20.00
2022-09-06T18:33:48.570Z,19.90
2022-09-06T18:36:16.074Z,19.80
2022-09-06T18:38:43.394Z,19.80
2022-09-06T18:41:32.175Z,19.80
2022-09-06T18:44:00.631Z,19.70
2022-09-06T18:46:27.660Z,19.70
2022-09-06T18:48:55.548Z,19.60
2022-09-06T18:51:23.003Z,19.60
2022-09-06T18:53:49.706Z,19.50
2022-09-06T18:56:16.584Z,19.50
2022-09-06T18:58:43.414Z,19.40
2022-09-06T19:01:13.210Z,19.40
2022-09-06T19:03:41.368Z,19.30
2022-09-06T19:06:14.586Z,19.30
2022-09-06T19:08:41.878Z,19.30
2022-09-06T19:11:14.282Z,19.30
2022-09-06T19:13:41.966Z,19.20
2022-09-06T19:16:10.143Z,19.20
2022-09-06T19:18:37.331Z,19.20
2022-09-06T19:21:08.456Z,19.20
2022-09-06T19:23:37.791Z,19.20
2022-09-06T19:26:19.235Z,19.10
2022-09-06T19:28:51.103Z,19.10
2022-09-06T19:31:18.588Z,19.10
2022-09-06T19:33:47.461Z,19.00
2022-09-06T19:36:14.897Z,19.00
2022-09-06T19:39:01.951Z,19.00
2022-09-06T19:41:30.021Z,19.00
2022-09-06T19:43:58.105Z,19.00
2022-09-06T19:46:25.881Z,18.90
2022-09-06T19:48:54.076Z,18.90
2022-09-06T19:51:21.480Z,18.80
2022-09-06T19:53:53.382Z,18.90
2022-09-06T19:56:26.258Z,18.80
2022-09-06T19:58:55.298Z,18.80
2022-09-06T20:01:23.060Z,18.70
2022-09-06T20:03:50.188Z,18.70
2022-09-06T20:06:17.166Z,18.70
2022-09-06T20:08:44.054Z,18.70
2022-09-06T20:11:12.693Z,18.70
2022-09-06T20:13:39.694Z,18.70
2022-09-06T20:16:08.836Z,18.60
2022-09-06T20:18:36.120Z,18.50
2022-09-06T20:21:03.329Z,18.50
2022-09-06T20:23:31.918Z,18.50
2022-09-06T20:26:03.290Z,18.50
2022-09-06T20:28:30.625Z,18.50
2022-09-06T20:31:06.268Z,18.50
2022-09-06T20:33:33.795Z,18.50
2022-09-06T20:36:03.094Z,18.50
2022-09-06T20:38:31.439Z,18.50
2022-09-06T20:41:05.827Z,18.40
2022-09-06T20:43:36.379Z,18.40
2022-09-06T20:46:15.372Z,18.40
2022-09-06T20:48:44.885Z,18.50
2022-09-06T20:51:20.850Z,18.40
2022-09-06T20:53:53.566Z,18.40
2022-09-06T20:56:34.872Z,18.50
2022-09-06T20:59:03.986Z,18.50
2022-09-06T21:01:34.565Z,18.50
2022-09-06T21:04:03.475Z,18.40
2022-09-06T21:06:33.744Z,18.40
2022-09-06T21:09:00.556Z,18.40
2022-09-06T21:11:27.479Z,18.40
2022-09-06T21:13:56.581Z,18.40
2022-09-06T21:16:25.571Z,18.30
2022-09-06T21:18:53.843Z,18.30
2022-09-06T21:21:22.356Z,18.30
2022-09-06T21:23:49.399Z,18.30
2022-09-06T21:26:16.234Z,18.30
2022-09-06T21:28:43.925Z,18.30
2022-09-06T21:31:19.303Z,18.30
2022-09-06T21:33:48.996Z,18.30
2022-09-06T21:36:19.237Z,18.30
2022-09-06T21:38:52.519Z,18.30
2022-09-06T21:41:19.602Z,18.20
2022-09-06T21:43:46.743Z,18.20
2022-09-06T21:46:17.052Z,18.20
2022-09-06T21:48:46.175Z,18.20
2022-09-06T21:51:17.214Z,18.20
2022-09-06T21:53:45.514Z,18.20
2022-09-06T21:56:13.486Z,18.10
2022-09-06T21:58:40.996Z,18.20
2022-09-06T22:01:08.207Z,18.10
2022-09-06T22:03:37.446Z,18.10
2022-09-06T22:06:18.718Z,18.00
2022-09-06T22:08:46.314Z,17.90
2022-09-06T22:11:15.799Z,17.90
2022-09-06T22:13:43.467Z,18.00
2022-09-06T22:16:11.264Z,18.00
2022-09-06T22:18:38.501Z,18.00
2022-09-06T22:21:07.651Z,18.00
2022-09-06T22:23:34.870Z,18.10
2022-09-06T22:26:01.632Z,18.00
2022-09-06T22:28:28.472Z,18.00
2022-09-06T22:30:55.189Z,18.00
2022-09-06T22:33:21.930Z,18.00
2022-09-06T22:35:48.606Z,18.00
2022-09-06T22:38:15.345Z,18.00
2022-09-06T22:40:41.945Z,18.00
2022-09-06T22:43:08.620Z,18.00
2022-09-06T22:45:35.804Z,18.00
2022-09-06T22:48:02.845Z,18.00
2022-09-06T22:50:30.674Z,17.90
2022-09-06T22:52:57.478Z,17.90
2022-09-06T22:55:24.127Z,17.90
2022-09-06T22:57:50.774Z,17.90
2022-09-06T23:00:18.430Z,17.90
2022-09-06T23:02:45.074Z,17.80
2022-09-06T23:05:11.772Z,17.80
2022-09-06T23:07:38.491Z,17.80
2022-09-06T23:10:05.632Z,17.80
2022-09-06T23:12:32.287Z,17.70
2022-09-06T23:14:58.938Z,17.70
2022-09-06T23:17:25.613Z,17.60
2022-09-06T23:19:52.295Z,17.60
2022-09-06T23:22:18.918Z,17.60
2022-09-06T23:24:46.233Z,17.60
2022-09-06T23:27:13.066Z,17.60
2022-09-06T23:29:41.032Z,17.50
2022-09-06T23:32:07.820Z,17.60
2022-09-06T23:34:34.637Z,17.50
2022-09-06T23:37:01.295Z,17.60
2022-09-06T23:39:28.455Z,17.60
2022-09-06T23:41:55.886Z,17.50
2022-09-06T23:44:23.110Z,17.50
2022-09-06T23:46:49.993Z,17.50
2022-09-06T23:49:16.658Z,17.50
2022-09-06T23:51:44.197Z,17.50
2022-09-06T23:54:10.926Z,17.50
2022-09-06T23:56:37.580Z,17.50
2022-09-06T23:59:04.318Z,17.40
